createdAt,value
2022-09-13T00:00:05.026Z,5.47
2022-09-13T00:02:32.690Z,4.20
2022-09-13T00:05:00.177Z,4.30
2022-09-13T00:07:27.561Z,4.60
2022-09-13T00:09:54.905Z,3.88
2022-09-13T00:12:23.647Z,4.03
2022-09-13T00:14:51.225Z,4.70
2022-09-13T00:17:18.632Z,4.80
2022-09-13T00:19:46.007Z,3.97
2022-09-13T00:22:13.367Z,4.75
2022-09-13T00:24:41.367Z,3.95
2022-09-13T00:27:08.726Z,4.72
2022-09-13T00:29:37.456Z,4.28
2022-09-13T00:32:04.815Z,4.07
2022-09-13T00:34:32.338Z,5.22
2022-09-13T00:36:59.684Z,6.57
2022-09-13T00:39:27.011Z,3.83
2022-09-13T00:41:54.410Z,4.22
2022-09-13T00:44:40.526Z,4.55
2022-09-13T00:47:09.248Z,5.53
2022-09-13T00:49:37.902Z,3.80
2022-09-13T00:52:07.861Z,4.85
2022-09-13T00:54:37.194Z,4.55
2022-09-13T00:57:05.880Z,4.45
2022-09-13T00:59:35.154Z,5.00
2022-09-13T01:02:04.566Z,4.45
2022-09-13T01:04:35.512Z,4.97
2022-09-13T01:09:31.486Z,4.97
2022-09-13T01:12:04.261Z,4.90
2022-09-13T01:14:31.835Z,4.55
2022-09-13T01:16:59.234Z,4.05
2022-09-13T01:19:26.598Z,6.68
2022-09-13T01:22:16.177Z,4.45
2022-09-13T01:25:01.279Z,4.35
2022-09-13T01:27:36.213Z,5.43
2022-09-13T01:30:07.392Z,3.83
2022-09-13T01:32:38.625Z,5.22
2022-09-13T01:35:16.992Z,4.40
2022-09-13T01:37:51.588Z,5.85
2022-09-13T01:40:25.560Z,4.10
2022-09-13T01:43:03.498Z,4.70
2022-09-13T01:45:38.194Z,4.68
2022-09-13T01:48:11.075Z,4.50
2022-09-13T01:50:41.824Z,4.28
2022-09-13T01:53:15.891Z,5.53
2022-09-13T01:55:45.188Z,5.47
2022-09-13T01:58:18.496Z,4.30
2022-09-13T02:00:48.999Z,6.15
2022-09-13T02:03:23.981Z,6.57
2022-09-13T02:05:53.667Z,5.47
2022-09-13T02:08:22.961Z,5.93
2022-09-13T02:10:52.014Z,6.25
2022-09-13T02:13:22.173Z,8.45
2022-09-13T02:15:52.718Z,5.13
2022-09-13T02:18:22.668Z,6.38
2022-09-13T02:20:51.420Z,5.25
2022-09-13T02:23:22.694Z,4.90
2022-09-13T02:25:50.894Z,4.20
2022-09-13T02:28:22.071Z,5.68
2022-09-13T02:30:53.194Z,4.20
2022-09-13T02:33:23.247Z,11.35
2022-09-13T02:35:53.089Z,4.97
2022-09-13T02:38:23.555Z,4.72
2022-09-13T02:40:56.502Z,6.30
2022-09-13T02:43:25.993Z,4.72
2022-09-13T02:46:11.585Z,5.68
2022-09-13T02:48:44.601Z,5.97
2022-09-13T02:51:17.670Z,5.15
2022-09-13T02:53:51.499Z,5.43
2022-09-13T02:56:24.942Z,5.65
2022-09-13T02:58:55.942Z,4.95
2022-09-13T03:01:24.990Z,5.00
2022-09-13T03:03:53.397Z,4.85
2022-09-13T03:06:24.459Z,4.75
2022-09-13T03:08:51.914Z,4.85
2022-09-13T03:11:25.894Z,4.78
2022-09-13T03:14:03.916Z,8.30
2022-09-13T03:16:38.146Z,4.97
2022-09-13T03:19:13.423Z,4.75
2022-09-13T03:21:52.939Z,8.00
2022-09-13T03:24:24.202Z,5.05
2022-09-13T03:27:02.237Z,5.45
2022-09-13T03:29:33.551Z,4.32
2022-09-13T03:32:08.107Z,6.30
2022-09-13T03:34:41.420Z,6.35
2022-09-13T03:37:11.604Z,4.38
2022-09-13T03:39:42.013Z,5.47
2022-09-13T03:42:12.985Z,6.18
2022-09-13T03:44:42.206Z,5.45
2022-09-13T03:47:11.590Z,8.90
2022-09-13T03:49:39.983Z,10.60
2022-09-13T03:52:07.819Z,9.45
2022-09-13T03:54:37.787Z,11.23
2022-09-13T03:57:09.683Z,11.48
2022-09-13T03:59:38.640Z,7.95
2022-09-13T04:02:07.506Z,13.10
2022-09-13T04:04:36.318Z,9.18
2022-09-13T04:07:04.239Z,7.57
2022-09-13T04:09:31.868Z,9.25
2022-09-13T04:11:59.226Z,6.78
2022-09-13T04:14:28.162Z,7.22
2022-09-13T04:16:55.952Z,8.98
2022-09-13T04:19:23.766Z,7.43
2022-09-13T04:21:53.047Z,7.28
2022-09-13T04:24:20.585Z,7.72
2022-09-13T04:26:50.423Z,7.93
2022-09-13T04:29:18.212Z,7.13
2022-09-13T04:31:45.588Z,6.00
2022-09-13T04:34:13.243Z,7.95
2022-09-13T04:36:40.639Z,8.35
2022-09-13T04:39:09.336Z,6.13
2022-09-13T04:41:36.752Z,6.07
2022-09-13T04:44:04.404Z,6.20
2022-09-13T04:46:31.779Z,7.45
2022-09-13T04:48:59.231Z,5.15
2022-09-13T04:51:26.603Z,8.15
2022-09-13T04:53:54.300Z,8.00
2022-09-13T04:56:23.595Z,6.88
2022-09-13T04:58:51.543Z,9.40
2022-09-13T05:01:19.066Z,9.60
2022-09-13T05:03:46.476Z,6.78
2022-09-13T05:06:15.131Z,10.57
2022-09-13T05:08:42.561Z,7.20
2022-09-13T05:11:09.954Z,6.53
2022-09-13T05:13:39.459Z,7.60
2022-09-13T05:16:07.787Z,7.05
2022-09-13T05:18:36.437Z,6.05
2022-09-13T05:21:05.330Z,5.70
2022-09-13T05:23:33.049Z,9.23
2022-09-13T05:26:01.805Z,7.20
2022-09-13T05:28:29.765Z,6.00
2022-09-13T05:30:59.394Z,6.38
2022-09-13T05:33:27.251Z,5.55
2022-09-13T05:35:54.983Z,5.57
2022-09-13T05:38:22.717Z,5.75
2022-09-13T05:40:56.261Z,5.53
2022-09-13T05:43:25.205Z,9.23
2022-09-13T05:46:00.848Z,8.32
2022-09-13T05:48:29.576Z,6.22
2022-09-13T05:50:58.492Z,6.43
2022-09-13T05:53:26.247Z,5.82
2022-09-13T05:55:53.595Z,7.05
2022-09-13T05:58:20.972Z,7.95
2022-09-13T06:00:53.347Z,7.38
2022-09-13T06:03:20.744Z,6.75
2022-09-13T06:05:49.486Z,6.25
2022-09-13T06:08:17.029Z,7.78
2022-09-13T06:10:44.424Z,7.35
2022-09-13T06:13:11.813Z,8.00
2022-09-13T06:15:43.233Z,7.00
2022-09-13T06:18:10.810Z,9.15
2022-09-13T06:20:38.164Z,8.68
2022-09-13T06:23:06.914Z,9.77
2022-09-13T06:25:34.304Z,6.88
2022-09-13T06:28:01.675Z,7.32
2022-09-13T06:30:28.996Z,8.45
2022-09-13T06:32:57.019Z,8.90
2022-09-13T06:35:24.418Z,8.82
2022-09-13T06:37:51.830Z,9.35
2022-09-13T06:40:25.203Z,9.80
2022-09-13T06:42:52.817Z,8.15
2022-09-13T06:45:20.324Z,10.10
2022-09-13T06:47:47.692Z,8.60
2022-09-13T06:50:15.139Z,7.90
2022-09-13T06:52:42.487Z,9.45
2022-09-13T06:55:12.676Z,9.70
2022-09-13T06:57:41.623Z,10.50
2022-09-13T07:00:09.830Z,9.93
2022-09-13T07:02:37.239Z,9.25
2022-09-13T07:05:04.768Z,9.35
2022-09-13T07:07:32.172Z,9.63
2022-09-13T07:10:00.933Z,9.43
2022-09-13T07:12:28.327Z,12.05
2022-09-13T07:14:57.064Z,8.07
2022-09-13T07:17:26.624Z,9.38
2022-09-13T07:19:55.807Z,9.15
2022-09-13T07:22:26.982Z,10.68
2022-09-13T07:24:54.428Z,8.88
2022-09-13T07:27:21.815Z,20.13
2022-09-13T07:29:49.217Z,10.40
2022-09-13T07:32:17.961Z,8.00
2022-09-13T07:34:45.285Z,7.53
2022-09-13T07:37:12.637Z,7.88
2022-09-13T07:39:40.110Z,9.07
2022-09-13T07:42:07.568Z,9.63
2022-09-13T07:44:34.950Z,10.07
2022-09-13T07:47:02.294Z,8.25
2022-09-13T07:49:31.046Z,8.15
2022-09-13T07:51:58.383Z,8.85
2022-09-13T07:54:25.915Z,10.00
2022-09-13T07:56:53.426Z,10.35
2022-09-13T07:59:20.848Z,9.40
2022-09-13T08:01:49.032Z,7.75
2022-09-13T08:04:18.403Z,9.07
2022-09-13T08:06:47.405Z,7.68
2022-09-13T08:09:15.449Z,9.82
2022-09-13T08:11:43.835Z,11.88
2022-09-13T08:14:12.304Z,9.05
2022-09-13T08:16:40.324Z,8.50
2022-09-13T08:19:08.631Z,9.38
2022-09-13T08:21:36.896Z,6.63
2022-09-13T08:24:06.180Z,9.02
2022-09-13T08:26:34.420Z,7.40
2022-09-13T08:29:03.307Z,7.80
2022-09-13T08:31:31.020Z,13.07
2022-09-13T08:33:58.707Z,8.02
2022-09-13T08:36:26.698Z,8.70
2022-09-13T08:38:55.804Z,7.65
2022-09-13T08:41:34.694Z,7.60
2022-09-13T08:44:04.311Z,10.30
2022-09-13T08:46:34.246Z,8.57
2022-09-13T08:49:04.423Z,10.30
2022-09-13T08:51:33.172Z,8.25
2022-09-13T08:54:00.697Z,7.80
2022-09-13T08:56:33.439Z,11.50
2022-09-13T08:59:04.901Z,9.90
2022-09-13T09:01:39.138Z,11.80
2022-09-13T09:04:13.234Z,9.63
2022-09-13T09:06:40.996Z,9.38
2022-09-13T09:09:09.675Z,11.85
2022-09-13T09:11:39.095Z,7.80
2022-09-13T09:14:08.278Z,9.45
2022-09-13T09:16:38.792Z,7.55
2022-09-13T09:21:33.898Z,8.13
2022-09-13T09:24:03.639Z,7.50
2022-09-13T09:26:31.655Z,8.93
2022-09-13T09:29:01.371Z,9.05
2022-09-13T09:31:33.482Z,8.73
2022-09-13T09:34:06.820Z,9.98
2022-09-13T09:36:38.653Z,10.15
2022-09-13T09:39:06.602Z,8.82
2022-09-13T09:41:35.155Z,9.45
2022-09-13T09:44:07.221Z,7.80
2022-09-13T09:46:36.732Z,7.03
2022-09-13T09:49:27.561Z,8.68
2022-09-13T09:51:56.408Z,9.60
2022-09-13T09:54:25.265Z,8.23
2022-09-13T09:56:53.813Z,8.00
2022-09-13T09:59:28.544Z,8.73
2022-09-13T10:01:58.014Z,9.18
2022-09-13T10:04:26.009Z,7.57
2022-09-13T10:07:12.586Z,6.85
2022-09-13T10:09:56.103Z,8.65
2022-09-13T10:12:27.590Z,9.13
2022-09-13T10:15:03.904Z,8.07
2022-09-13T10:17:31.299Z,6.82
2022-09-13T10:20:01.209Z,8.85
2022-09-13T10:22:29.076Z,8.00
2022-09-13T10:24:57.043Z,7.80
2022-09-13T10:27:26.978Z,8.82
2022-09-13T10:29:59.630Z,8.82
2022-09-13T10:32:27.908Z,7.30
2022-09-13T10:34:56.383Z,7.57
2022-09-13T10:37:30.688Z,8.18
2022-09-13T10:40:01.773Z,7.40
2022-09-13T10:42:31.031Z,7.75
2022-09-13T10:45:00.453Z,8.27
2022-09-13T10:47:31.167Z,9.13
2022-09-13T10:49:59.354Z,8.02
2022-09-13T10:52:27.950Z,7.43
2022-09-13T10:54:55.516Z,8.23
2022-09-13T10:57:34.397Z,6.95
2022-09-13T11:00:03.486Z,10.43
2022-09-13T11:02:38.404Z,8.35
2022-09-13T11:05:12.739Z,8.38
2022-09-13T11:07:55.047Z,7.60
2022-09-13T11:10:27.842Z,7.88
2022-09-13T11:12:59.155Z,7.32
2022-09-13T11:15:32.884Z,7.68
2022-09-13T11:18:13.992Z,8.27
2022-09-13T11:20:45.171Z,7.97
2022-09-13T11:23:24.378Z,11.50
2022-09-13T11:26:04.909Z,8.73
2022-09-13T11:28:37.108Z,10.75
2022-09-13T11:31:09.074Z,9.82
2022-09-13T11:33:41.675Z,10.43
2022-09-13T11:36:17.300Z,13.52
2022-09-13T11:38:49.718Z,9.93
2022-09-13T11:41:22.846Z,10.90
2022-09-13T11:44:03.800Z,9.35
2022-09-13T11:46:36.703Z,10.68
2022-09-13T11:49:14.414Z,12.73
2022-09-13T11:51:48.846Z,13.10
2022-09-13T11:54:24.445Z,13.40
2022-09-13T11:56:55.460Z,13.90
2022-09-13T11:59:29.542Z,14.52
2022-09-13T12:01:59.970Z,12.95
2022-09-13T12:07:01.119Z,9.88
2022-09-13T12:09:30.463Z,12.02
2022-09-13T12:12:00.264Z,10.15
2022-09-13T12:14:31.728Z,9.75
2022-09-13T12:17:03.959Z,11.15
2022-09-13T12:19:37.222Z,10.07
2022-09-13T12:22:04.883Z,10.80
2022-09-13T12:24:35.907Z,10.23
2022-09-13T12:27:05.404Z,9.52
2022-09-13T12:29:36.423Z,8.98
2022-09-13T12:32:06.335Z,10.73
2022-09-13T12:34:36.653Z,8.45
2022-09-13T12:37:11.586Z,9.52
2022-09-13T12:39:46.076Z,9.57
2022-09-13T12:42:29.321Z,9.05
2022-09-13T12:45:05.656Z,9.07
2022-09-13T12:47:51.746Z,11.98
2022-09-13T12:50:43.481Z,9.52
2022-09-13T12:53:20.735Z,9.73
2022-09-13T12:55:53.963Z,11.25
2022-09-13T12:58:32.803Z,9.90
2022-09-13T13:01:06.010Z,10.07
2022-09-13T13:03:35.801Z,9.60
2022-09-13T13:06:11.791Z,9.55
2022-09-13T13:08:40.739Z,10.05
2022-09-13T13:11:09.900Z,11.50
2022-09-13T13:13:38.579Z,10.43
2022-09-13T13:16:09.075Z,10.98
2022-09-13T13:21:22.191Z,10.73
2022-09-13T13:24:10.965Z,11.32
2022-09-13T13:26:45.579Z,10.75
2022-09-13T13:29:22.441Z,9.70
2022-09-13T13:32:19.924Z,9.85
2022-09-13T13:34:48.998Z,11.32
2022-09-13T13:37:26.933Z,9.07
2022-09-13T13:40:09.984Z,11.60
2022-09-13T13:42:39.563Z,15.20
2022-09-13T13:45:21.274Z,11.25
2022-09-13T13:47:54.752Z,11.18
2022-09-13T13:50:22.468Z,10.80
2022-09-13T13:52:55.323Z,9.77
2022-09-13T13:55:39.381Z,10.73
2022-09-13T13:58:13.122Z,13.85
2022-09-13T14:00:47.655Z,10.43
2022-09-13T14:03:19.064Z,10.75
2022-09-13T14:05:50.276Z,10.23
2022-09-13T14:08:30.295Z,10.32
2022-09-13T14:11:03.405Z,8.75
2022-09-13T14:13:39.459Z,11.10
2022-09-13T14:16:10.060Z,10.85
2022-09-13T14:18:46.528Z,8.63
2022-09-13T14:21:21.519Z,11.18
2022-09-13T14:23:49.247Z,9.55
2022-09-13T14:26:16.768Z,11.98
2022-09-13T14:28:45.555Z,10.07
2022-09-13T14:31:18.354Z,8.95
2022-09-13T14:33:45.802Z,9.77
2022-09-13T14:36:17.858Z,9.77
2022-09-13T14:38:52.800Z,11.15
2022-09-13T14:41:23.515Z,9.25
2022-09-13T14:43:52.258Z,10.18
2022-09-13T14:46:23.956Z,12.38
2022-09-13T14:48:52.720Z,10.55
2022-09-13T14:51:22.612Z,11.93
2022-09-13T14:53:51.303Z,12.45
2022-09-13T14:56:20.032Z,9.35
2022-09-13T14:58:48.511Z,12.80
2022-09-13T15:01:19.984Z,9.48
2022-09-13T15:03:49.042Z,9.32
2022-09-13T15:06:25.887Z,8.30
2022-09-13T15:08:53.577Z,12.10
2022-09-13T15:11:35.161Z,10.38
2022-09-13T15:14:23.377Z,8.27
2022-09-13T15:16:53.407Z,9.10
2022-09-13T15:21:48.026Z,7.28
2022-09-13T15:24:21.154Z,6.82
2022-09-13T15:26:48.562Z,7.13
2022-09-13T15:29:19.051Z,6.88
2022-09-13T15:31:47.453Z,8.57
2022-09-13T15:34:23.487Z,7.03
2022-09-13T15:37:02.767Z,6.63
2022-09-13T15:39:30.275Z,5.65
2022-09-13T15:41:58.913Z,8.98
2022-09-13T15:44:26.655Z,7.05
2022-09-13T15:46:54.985Z,7.30
2022-09-13T15:49:27.152Z,6.55
2022-09-13T15:51:55.220Z,5.43
2022-09-13T15:54:22.783Z,7.38
2022-09-13T15:56:51.427Z,4.90
2022-09-13T15:59:19.454Z,6.10
2022-09-13T16:01:48.291Z,5.80
2022-09-13T16:04:15.977Z,6.25
2022-09-13T16:06:45.038Z,4.85
2022-09-13T16:09:17.065Z,5.55
2022-09-13T16:11:44.459Z,6.53
2022-09-13T16:14:11.811Z,3.95
2022-09-13T16:16:39.201Z,5.82
2022-09-13T16:19:06.596Z,4.82
2022-09-13T16:21:34.139Z,7.80
2022-09-13T16:24:02.943Z,5.97
2022-09-13T16:26:32.451Z,5.75
2022-09-13T16:28:59.771Z,5.00
2022-09-13T16:31:27.242Z,6.57
2022-09-13T16:33:54.636Z,6.35
2022-09-13T16:36:21.998Z,4.78
2022-09-13T16:38:49.423Z,5.18
2022-09-13T16:41:18.119Z,5.50
2022-09-13T16:43:45.554Z,4.78
2022-09-13T16:46:14.668Z,6.78
2022-09-13T16:48:42.147Z,7.30
2022-09-13T16:51:11.520Z,7.43
2022-09-13T16:53:39.699Z,4.35
2022-09-13T16:56:07.435Z,6.20
2022-09-13T16:58:38.333Z,4.97
2022-09-13T17:01:06.058Z,7.15
2022-09-13T17:03:34.236Z,6.20
2022-09-13T17:06:02.223Z,4.70
2022-09-13T17:08:29.951Z,5.68
2022-09-13T17:10:57.546Z,6.40
2022-09-13T17:13:25.040Z,5.40
2022-09-13T17:15:56.653Z,7.55
2022-09-13T17:18:24.397Z,7.47
2022-09-13T17:20:52.303Z,7.38
2022-09-13T17:23:20.059Z,9.13
2022-09-13T17:25:48.873Z,8.30
2022-09-13T17:28:16.847Z,6.00
2022-09-13T17:30:45.165Z,6.28
2022-09-13T17:33:14.459Z,5.72
2022-09-13T17:35:43.492Z,6.38
2022-09-13T17:38:11.405Z,6.57
2022-09-13T17:40:38.784Z,7.22
2022-09-13T17:43:06.173Z,7.22
2022-09-13T17:45:33.897Z,7.35
2022-09-13T17:48:01.254Z,8.50
2022-09-13T17:50:30.009Z,9.35
2022-09-13T17:52:57.347Z,9.88
2022-09-13T17:55:25.852Z,8.75
2022-09-13T17:57:53.367Z,7.80
2022-09-13T18:00:20.767Z,10.77
2022-09-13T18:02:48.399Z,6.85
2022-09-13T18:05:15.890Z,7.35
2022-09-13T18:07:44.674Z,5.68
2022-09-13T18:10:32.254Z,6.32
2022-09-13T18:12:59.438Z,4.90
2022-09-13T18:15:27.036Z,5.32
2022-09-13T18:17:54.372Z,6.82
2022-09-13T18:20:21.855Z,8.40
2022-09-13T18:22:50.526Z,5.93
2022-09-13T18:25:17.941Z,5.57
2022-09-13T18:27:45.371Z,7.25
2022-09-13T18:30:12.986Z,7.10
2022-09-13T18:32:40.344Z,6.53
2022-09-13T18:35:08.250Z,6.55
2022-09-13T18:37:35.771Z,6.47
2022-09-13T18:40:06.851Z,5.00
2022-09-13T18:42:34.232Z,5.13
2022-09-13T18:45:01.602Z,6.13
2022-09-13T18:47:29.189Z,5.70
2022-09-13T18:49:56.562Z,6.32
2022-09-13T18:52:23.915Z,5.93
2022-09-13T18:54:51.300Z,5.47
2022-09-13T18:57:20.024Z,5.25
2022-09-13T18:59:47.454Z,7.00
2022-09-13T19:02:14.945Z,6.75
2022-09-13T19:04:42.414Z,9.27
2022-09-13T19:07:09.782Z,5.68
2022-09-13T19:09:37.236Z,6.32
2022-09-13T19:12:04.857Z,8.57
2022-09-13T19:14:33.663Z,6.35
2022-09-13T19:17:02.959Z,5.93
2022-09-13T19:19:31.895Z,7.18
2022-09-13T19:21:59.486Z,6.72
2022-09-13T19:24:27.018Z,6.03
2022-09-13T19:26:54.732Z,7.22
2022-09-13T19:29:22.841Z,6.20
2022-09-13T19:31:52.735Z,8.30
2022-09-13T19:34:21.851Z,8.98
2022-09-13T19:36:50.533Z,7.82
2022-09-13T19:39:18.127Z,6.45
2022-09-13T19:41:45.469Z,7.72
2022-09-13T19:44:13.693Z,8.43
2022-09-13T19:46:42.041Z,8.30
2022-09-13T19:49:12.670Z,7.40
2022-09-13T19:51:40.391Z,9.25
2022-09-13T19:54:08.257Z,8.32
2022-09-13T19:56:37.278Z,8.23
2022-09-13T19:59:04.944Z,8.23
2022-09-13T20:01:33.466Z,9.65
2022-09-13T20:04:01.699Z,9.38
2022-09-13T20:06:34.399Z,7.93
2022-09-13T20:09:02.854Z,8.95
2022-09-13T20:11:30.698Z,10.45
2022-09-13T20:13:59.460Z,9.10
2022-09-13T20:16:28.478Z,10.32
2022-09-13T20:18:56.795Z,9.32
2022-09-13T20:21:24.582Z,8.82
2022-09-13T20:23:54.816Z,8.30
2022-09-13T20:26:24.197Z,10.70
2022-09-13T20:28:54.393Z,10.70
2022-09-13T20:31:23.393Z,11.60
2022-09-13T20:33:54.759Z,10.38
2022-09-13T20:36:22.142Z,10.73
2022-09-13T20:38:50.092Z,10.88
2022-09-13T20:41:19.290Z,12.38
2022-09-13T20:43:48.485Z,11.60
2022-09-13T20:46:16.591Z,11.63
2022-09-13T20:48:44.676Z,10.85
2022-09-13T20:51:12.918Z,10.23
2022-09-13T20:53:40.498Z,10.63
2022-09-13T20:56:08.347Z,11.05
2022-09-13T20:58:37.038Z,9.57
2022-09-13T21:01:05.868Z,10.70
2022-09-13T21:03:35.331Z,11.10
2022-09-13T21:06:02.719Z,9.50
2022-09-13T21:08:41.301Z,11.23
2022-09-13T21:11:09.601Z,9.15
2022-09-13T21:13:39.043Z,9.68
2022-09-13T21:16:07.074Z,8.63
2022-09-13T21:18:34.726Z,11.70
2022-09-13T21:21:02.901Z,7.82
2022-09-13T21:23:31.407Z,11.73
2022-09-13T21:26:02.118Z,9.15
2022-09-13T21:30:59.858Z,8.05
2022-09-13T21:33:27.795Z,7.63
2022-09-13T21:35:56.824Z,9.73
2022-09-13T21:38:25.214Z,8.75
2022-09-13T21:40:55.967Z,7.25
2022-09-13T21:45:50.600Z,7.30
2022-09-13T21:48:21.474Z,8.48
2022-09-13T21:50:49.876Z,9.07
2022-09-13T21:53:17.648Z,6.28
2022-09-13T21:55:45.737Z,8.95
2022-09-13T21:58:14.419Z,5.85
2022-09-13T22:00:41.776Z,9.68
2022-09-13T22:03:09.959Z,10.60
2022-09-13T22:05:38.654Z,10.10
2022-09-13T22:08:06.020Z,9.50
2022-09-13T22:10:35.579Z,9.93
2022-09-13T22:13:03.797Z,8.23
2022-09-13T22:15:31.124Z,8.85
2022-09-13T22:17:58.511Z,8.85
2022-09-13T22:20:25.862Z,7.82
2022-09-13T22:22:54.615Z,11.05
2022-09-13T22:25:22.054Z,9.45
2022-09-13T22:27:49.360Z,8.57
2022-09-13T22:30:16.813Z,6.93
2022-09-13T22:32:44.193Z,5.15
2022-09-13T22:35:11.547Z,7.40
2022-09-13T22:37:38.947Z,4.85
2022-09-13T22:40:09.222Z,9.05
2022-09-13T22:42:36.655Z,5.90
2022-09-13T22:45:04.207Z,6.72
2022-09-13T22:47:31.567Z,6.70
2022-09-13T22:49:58.890Z,6.93
2022-09-13T22:52:26.254Z,6.85
2022-09-13T22:54:53.560Z,7.80
2022-09-13T22:57:22.277Z,6.18
2022-09-13T22:59:49.693Z,6.88
2022-09-13T23:02:17.053Z,8.15
2022-09-13T23:04:44.424Z,5.57
2022-09-13T23:07:11.858Z,6.80
2022-09-13T23:09:39.202Z,4.40
2022-09-13T23:12:06.675Z,6.90
2022-09-13T23:14:35.388Z,5.88
2022-09-13T23:17:02.785Z,4.50
2022-09-13T23:19:30.160Z,7.50
2022-09-13T23:21:57.551Z,7.72
2022-09-13T23:24:25.057Z,6.55
2022-09-13T23:26:54.660Z,6.10
2022-09-13T23:29:23.128Z,5.10
2022-09-13T23:31:52.167Z,5.53
2022-09-13T23:34:19.628Z,5.82
2022-09-13T23:36:47.256Z,8.07
2022-09-13T23:39:17.293Z,6.25
2022-09-13T23:41:45.238Z,7.82
2022-09-13T23:44:12.882Z,9.23
2022-09-13T23:46:40.257Z,7.10
2022-09-13T23:49:08.993Z,6.75
2022-09-13T23:51:36.634Z,7.22
2022-09-13T23:54:04.055Z,8.73
2022-09-13T23:56:32.714Z,9.68
2022-09-13T23:59:00.909Z,5.03
